sensor_id;sensor_type;location;lat;lon;timestamp;pressure;altitude;pressure_sealevel;temperature
68012;BMP180;54794;48.348;7.878;2023-10-19T00:00:44;97424.00;;;12.80
68012;BMP180;54794;48.348;7.878;2023-10-19T00:03:12;97433.00;;;12.80
68012;BMP180;54794;48.348;7.878;2023-10-19T00:05:40;97433.00;;;12.90
68012;BMP180;54794;48.348;7.878;2023-10-19T00:08:08;97431.00;;;13.20
68012;BMP180;54794;48.348;7.878;2023-10-19T00:10:51;97434.00;;;13.10
68012;BMP180;54794;48.348;7.878;2023-10-19T00:13:31;97425.00;;;13.30
68012;BMP180;54794;48.348;7.878;2023-10-19T00:15:58;97441.00;;;13.30
68012;BMP180;54794;48.348;7.878;2023-10-19T00:18:26;97426.00;;;13.30
68012;BMP180;54794;48.348;7.878;2023-10-19T00:20:54;97435.00;;;13.40
68012;BMP180;54794;48.348;7.878;2023-10-19T00:23:41;97413.00;;;13.50
68012;BMP180;54794;48.348;7.878;2023-10-19T00:26:09;97404.00;;;13.50
68012;BMP180;54794;48.348;7.878;2023-10-19T00:28:40;97401.00;;;13.40
68012;BMP180;54794;48.348;7.878;2023-10-19T00:31:07;97404.00;;;13.40
68012;BMP180;54794;48.348;7.878;2023-10-19T00:33:35;97402.00;;;13.20
68012;BMP180;54794;48.348;7.878;2023-10-19T00:36:07;97396.00;;;13.40
68012;BMP180;54794;48.348;7.878;2023-10-19T00:38:36;97403.00;;;13.10
68012;BMP180;54794;48.348;7.878;2023-10-19T00:41:08;97402.00;;;13.30
68012;BMP180;54794;48.348;7.878;2023-10-19T00:43:48;97393.00;;;13.20
68012;BMP180;54794;48.348;7.878;2023-10-19T00:46:25;97406.00;;;13.00
68012;BMP180;54794;48.348;7.878;2023-10-19T00:49:13;97409.00;;;12.90
68012;BMP180;54794;48.348;7.878;2023-10-19T00:51:50;97410.00;;;13.10
68012;BMP180;54794;48.348;7.878;2023-10-19T00:56:54;97397.00;;;13.30
68012;BMP180;54794;48.348;7.878;2023-10-19T00:59:26;97406.00;;;13.40
68012;BMP180;54794;48.348;7.878;2023-10-19T01:01:57;97393.00;;;13.50
68012;BMP180;54794;48.348;7.878;2023-10-19T01:04:53;97379.00;;;13.50
68012;BMP180;54794;48.348;7.878;2023-10-19T01:07:23;97373.00;;;13.50
68012;BMP180;54794;48.348;7.878;2023-10-19T01:09:51;97364.00;;;13.40
68012;BMP180;54794;48.348;7.878;2023-10-19T01:12:23;97368.00;;;13.20
68012;BMP180;54794;48.348;7.878;2023-10-19T01:15:12;97367.00;;;13.30
68012;BMP180;54794;48.348;7.878;2023-10-19T01:17:52;97357.00;;;13.20
68012;BMP180;54794;48.348;7.878;2023-10-19T01:20:26;97351.00;;;13.20
68012;BMP180;54794;48.348;7.878;2023-10-19T01:25:57;97350.00;;;12.80
68012;BMP180;54794;48.348;7.878;2023-10-19T01:28:33;97342.00;;;12.60
68012;BMP180;54794;48.348;7.878;2023-10-19T01:31:15;97343.00;;;12.60
68012;BMP180;54794;48.348;7.878;2023-10-19T01:34:02;97332.00;;;12.70
68012;BMP180;54794;48.348;7.878;2023-10-19T01:36:37;97332.00;;;12.80
68012;BMP180;54794;48.348;7.878;2023-10-19T01:39:21;97328.00;;;12.60
68012;BMP180;54794;48.348;7.878;2023-10-19T01:41:53;97335.00;;;12.70
68012;BMP180;54794;48.348;7.878;2023-10-19T01:44:33;97329.00;;;12.70
68012;BMP180;54794;48.348;7.878;2023-10-19T01:47:05;97326.00;;;12.50
68012;BMP180;54794;48.348;7.878;2023-10-19T01:49:41;97309.00;;;12.60
68012;BMP180;54794;48.348;7.878;2023-10-19T01:52:19;97302.00;;;12.80
68012;BMP180;54794;48.348;7.878;2023-10-19T01:54:50;97306.00;;;12.70
68012;BMP180;54794;48.348;7.878;2023-10-19T01:57:26;97299.00;;;12.60
68012;BMP180;54794;48.348;7.878;2023-10-19T01:59:53;97300.00;;;12.80
68012;BMP180;54794;48.348;7.878;2023-10-19T02:02:27;97304.00;;;12.90
68012;BMP180;54794;48.348;7.878;2023-10-19T02:05:05;97302.00;;;12.90
68012;BMP180;54794;48.348;7.878;2023-10-19T02:07:45;97290.00;;;12.90
68012;BMP180;54794;48.348;7.878;2023-10-19T02:10:21;97291.00;;;12.80
68012;BMP180;54794;48.348;7.878;2023-10-19T02:13:01;97287.00;;;13.10
68012;BMP180;54794;48.348;7.878;2023-10-19T02:15:50;97287.00;;;13.00
68012;BMP180;54794;48.348;7.878;2023-10-19T02:18:24;97291.00;;;13.10
68012;BMP180;54794;48.348;7.878;2023-10-19T02:21:23;97292.00;;;13.30
68012;BMP180;54794;48.348;7.878;2023-10-19T02:24:05;97289.00;;;13.30
68012;BMP180;54794;48.348;7.878;2023-10-19T02:26:38;97289.00;;;13.40
68012;BMP180;54794;48.348;7.878;2023-10-19T02:29:55;97291.00;;;13.50
68012;BMP180;54794;48.348;7.878;2023-10-19T02:32:41;97281.00;;;13.50
68012;BMP180;54794;48.348;7.878;2023-10-19T02:35:23;97275.00;;;13.70
68012;BMP180;54794;48.348;7.878;2023-10-19T02:38:11;97276.00;;;13.70
68012;BMP180;54794;48.348;7.878;2023-10-19T02:44:02;97276.00;;;13.80
68012;BMP180;54794;48.348;7.878;2023-10-19T02:47:26;97270.00;;;13.90
68012;BMP180;54794;48.348;7.878;2023-10-19T02:50:16;97261.00;;;14.00
68012;BMP180;54794;48.348;7.878;2023-10-19T02:53:59;97261.00;;;14.30
68012;BMP180;54794;48.348;7.878;2023-10-19T02:56:55;97257.00;;;14.50
68012;BMP180;54794;48.348;7.878;2023-10-19T02:59:44;97248.00;;;14.50
68012;BMP180;54794;48.348;7.878;2023-10-19T03:02:52;97263.00;;;14.70
68012;BMP180;54794;48.348;7.878;2023-10-19T03:05:43;97248.00;;;14.70
68012;BMP180;54794;48.348;7.878;2023-10-19T03:08:13;97248.00;;;14.70
68012;BMP180;54794;48.348;7.878;2023-10-19T03:10:58;97253.00;;;14.70
68012;BMP180;54794;48.348;7.878;2023-10-19T03:13:34;97245.00;;;14.80
68012;BMP180;54794;48.348;7.878;2023-10-19T03:16:09;97237.00;;;14.90
68012;BMP180;54794;48.348;7.878;2023-10-19T03:18:37;97232.00;;;14.90
68012;BMP180;54794;48.348;7.878;2023-10-19T03:21:11;97224.00;;;15.00
68012;BMP180;54794;48.348;7.878;2023-10-19T03:23:45;97230.00;;;15.10
68012;BMP180;54794;48.348;7.878;2023-10-19T03:26:13;97229.00;;;15.20
68012;BMP180;54794;48.348;7.878;2023-10-19T03:29:03;97228.00;;;15.20
68012;BMP180;54794;48.348;7.878;2023-10-19T03:31:39;97218.00;;;15.30
68012;BMP180;54794;48.348;7.878;2023-10-19T03:34:31;97216.00;;;15.40
68012;BMP180;54794;48.348;7.878;2023-10-19T03:37:08;97208.00;;;15.40
68012;BMP180;54794;48.348;7.878;2023-10-19T03:39:41;97223.00;;;15.50
68012;BMP180;54794;48.348;7.878;2023-10-19T03:42:09;97215.00;;;15.50
68012;BMP180;54794;48.348;7.878;2023-10-19T03:44:43;97213.00;;;15.50
68012;BMP180;54794;48.348;7.878;2023-10-19T03:47:18;97216.00;;;15.50
68012;BMP180;54794;48.348;7.878;2023-10-19T03:49:57;97204.00;;;15.50
68012;BMP180;54794;48.348;7.878;2023-10-19T03:52:27;97200.00;;;15.40
68012;BMP180;54794;48.348;7.878;2023-10-19T03:55:02;97198.00;;;15.40
68012;BMP180;54794;48.348;7.878;2023-10-19T03:57:34;97185.00;;;15.30
68012;BMP180;54794;48.348;7.878;2023-10-19T04:00:05;97189.00;;;15.40
68012;BMP180;54794;48.348;7.878;2023-10-19T04:02:35;97195.00;;;15.40
68012;BMP180;54794;48.348;7.878;2023-10-19T04:05:15;97187.00;;;15.40
68012;BMP180;54794;48.348;7.878;2023-10-19T04:08:06;97191.00;;;15.30
68012;BMP180;54794;48.348;7.878;2023-10-19T04:10:49;97192.00;;;15.20
68012;BMP180;54794;48.348;7.878;2023-10-19T04:13:38;97196.00;;;15.20
68012;BMP180;54794;48.348;7.878;2023-10-19T04:16:07;97185.00;;;15.20
68012;BMP180;54794;48.348;7.878;2023-10-19T04:18:37;97183.00;;;15.30
68012;BMP180;54794;48.348;7.878;2023-10-19T04:21:05;97183.00;;;15.20
68012;BMP180;54794;48.348;7.878;2023-10-19T04:23:32;97183.00;;;15.30
68012;BMP180;54794;48.348;7.878;2023-10-19T04:26:02;97183.00;;;15.10
68012;BMP180;54794;48.348;7.878;2023-10-19T04:28:39;97182.00;;;15.20
68012;BMP180;54794;48.348;7.878;2023-10-19T04:31:19;97180.00;;;15.30
68012;BMP180;54794;48.348;7.878;2023-10-19T04:33:50;97169.00;;;15.40
68012;BMP180;54794;48.348;7.878;2023-10-19T04:36:20;97161.00;;;15.20
68012;BMP180;54794;48.348;7.878;2023-10-19T04:39:02;97171.00;;;15.30
68012;BMP180;54794;48.348;7.878;2023-10-19T04:41:32;97164.00;;;15.40
68012;BMP180;54794;48.348;7.878;2023-10-19T04:44:00;97166.00;;;15.40
68012;BMP180;54794;48.348;7.878;2023-10-19T04:46:32;97168.00;;;15.50
68012;BMP180;54794;48.348;7.878;2023-10-19T04:49:01;97160.00;;;15.30
68012;BMP180;54794;48.348;7.878;2023-10-19T04:51:28;97161.00;;;15.50
68012;BMP180;54794;48.348;7.878;2023-10-19T04:53:55;97164.00;;;15.40
68012;BMP180;54794;48.348;7.878;2023-10-19T04:56:39;97160.00;;;15.50
68012;BMP180;54794;48.348;7.878;2023-10-19T04:59:14;97158.00;;;15.60
68012;BMP180;54794;48.348;7.878;2023-10-19T05:01:50;97162.00;;;15.50
68012;BMP180;54794;48.348;7.878;2023-10-19T05:04:36;97147.00;;;15.40
68012;BMP180;54794;48.348;7.878;2023-10-19T05:07:13;97159.00;;;15.50
68012;BMP180;54794;48.348;7.878;2023-10-19T05:09:46;97161.00;;;15.50
68012;BMP180;54794;48.348;7.878;2023-10-19T05:12:14;97158.00;;;15.50
68012;BMP180;54794;48.348;7.878;2023-10-19T05:14:42;97146.00;;;15.50
68012;BMP180;54794;48.348;7.878;2023-10-19T05:20:22;97146.00;;;15.50
68012;BMP180;54794;48.348;7.878;2023-10-19T05:22:50;97141.00;;;15.50
68012;BMP180;54794;48.348;7.878;2023-10-19T05:25:27;97134.00;;;15.30
68012;BMP180;54794;48.348;7.878;2023-10-19T05:28:11;97140.00;;;15.30
68012;BMP180;54794;48.348;7.878;2023-10-19T05:30:47;97129.00;;;15.20
68012;BMP180;54794;48.348;7.878;2023-10-19T05:33:18;97135.00;;;15.40
68012;BMP180;54794;48.348;7.878;2023-10-19T05:35:51;97127.00;;;15.60
68012;BMP180;54794;48.348;7.878;2023-10-19T05:38:26;97128.00;;;15.30
68012;BMP180;54794;48.348;7.878;2023-10-19T05:41:08;97123.00;;;15.40
68012;BMP180;54794;48.348;7.878;2023-10-19T05:43:56;97124.00;;;15.30
68012;BMP180;54794;48.348;7.878;2023-10-19T05:46:30;97121.00;;;15.20
68012;BMP180;54794;48.348;7.878;2023-10-19T05:49:05;97120.00;;;15.30
68012;BMP180;54794;48.348;7.878;2023-10-19T05:51:55;97124.00;;;15.20
68012;BMP180;54794;48.348;7.878;2023-10-19T05:54:30;97129.00;;;15.10
68012;BMP180;54794;48.348;7.878;2023-10-19T05:57:10;97127.00;;;15.00
68012;BMP180;54794;48.348;7.878;2023-10-19T05:59:40;97134.00;;;15.10
68012;BMP180;54794;48.348;7.878;2023-10-19T06:02:10;97130.00;;;15.30
68012;BMP180;54794;48.348;7.878;2023-10-19T06:04:42;97129.00;;;15.00
68012;BMP180;54794;48.348;7.878;2023-10-19T06:07:14;97126.00;;;15.30
68012;BMP180;54794;48.348;7.878;2023-10-19T06:09:49;97119.00;;;15.20
68012;BMP180;54794;48.348;7.878;2023-10-19T06:12:19;97115.00;;;15.40
68012;BMP180;54794;48.348;7.878;2023-10-19T06:14:52;97124.00;;;15.40
68012;BMP180;54794;48.348;7.878;2023-10-19T06:17:28;97116.00;;;15.50
68012;BMP180;54794;48.348;7.878;2023-10-19T06:20:01;97121.00;;;15.50
68012;BMP180;54794;48.348;7.878;2023-10-19T06:22:53;97117.00;;;15.40
68012;BMP180;54794;48.348;7.878;2023-10-19T06:25:38;97108.00;;;15.40
68012;BMP180;54794;48.348;7.878;2023-10-19T06:28:34;97107.00;;;15.50
68012;BMP180;54794;48.348;7.878;2023-10-19T06:31:13;97104.00;;;15.60
68012;BMP180;54794;48.348;7.878;2023-10-19T06:33:41;97100.00;;;15.60
68012;BMP180;54794;48.348;7.878;2023-10-19T06:36:11;97104.00;;;15.60
68012;BMP180;54794;48.348;7.878;2023-10-19T06:38:42;97101.00;;;15.70
68012;BMP180;54794;48.348;7.878;2023-10-19T06:41:14;97106.00;;;15.60
68012;BMP180;54794;48.348;7.878;2023-10-19T06:43:41;97103.00;;;15.70
68012;BMP180;54794;48.348;7.878;2023-10-19T06:46:12;97099.00;;;15.70
68012;BMP180;54794;48.348;7.878;2023-10-19T06:48:53;97106.00;;;15.60
68012;BMP180;54794;48.348;7.878;2023-10-19T06:51:48;97109.00;;;15.80
68012;BMP180;54794;48.348;7.878;2023-10-19T06:54:28;97108.00;;;15.90
68012;BMP180;54794;48.348;7.878;2023-10-19T06:57:16;97122.00;;;15.80
68012;BMP180;54794;48.348;7.878;2023-10-19T06:59:45;97122.00;;;16.00
68012;BMP180;54794;48.348;7.878;2023-10-19T07:02:15;97111.00;;;16.00
68012;BMP180;54794;48.348;7.878;2023-10-19T07:04:53;97120.00;;;16.10
68012;BMP180;54794;48.348;7.878;2023-10-19T07:07:25;97117.00;;;15.70
68012;BMP180;54794;48.348;7.878;2023-10-19T07:10:22;97113.00;;;15.70
68012;BMP180;54794;48.348;7.878;2023-10-19T07:13:07;97112.00;;;15.80
68012;BMP180;54794;48.348;7.878;2023-10-19T07:16:12;97111.00;;;15.80
68012;BMP180;54794;48.348;7.878;2023-10-19T07:36:38;97115.00;;;15.90
68012;BMP180;54794;48.348;7.878;2023-10-19T07:40:40;97112.00;;;15.60
68012;BMP180;54794;48.348;7.878;2023-10-19T07:44:43;97109.00;;;16.20
68012;BMP180;54794;48.348;7.878;2023-10-19T07:48:34;97110.00;;;16.10
68012;BMP180;54794;48.348;7.878;2023-10-19T08:03:31;97112.00;;;16.20
68012;BMP180;54794;48.348;7.878;2023-10-19T08:23:02;97112.00;;;16.80
68012;BMP180;54794;48.348;7.878;2023-10-19T08:26:28;97104.00;;;16.90
68012;BMP180;54794;48.348;7.878;2023-10-19T08:30:17;97090.00;;;17.10
68012;BMP180;54794;48.348;7.878;2023-10-19T08:41:28;97084.00;;;17.10
68012;BMP180;54794;48.348;7.878;2023-10-19T08:54:22;97073.00;;;17.20
68012;BMP180;54794;48.348;7.878;2023-10-19T08:58:15;97083.00;;;17.00
68012;BMP180;54794;48.348;7.878;2023-10-19T10:27:10;97010.00;;;16.70
68012;BMP180;54794;48.348;7.878;2023-10-19T10:34:00;97003.00;;;16.70
68012;BMP180;54794;48.348;7.878;2023-10-19T10:37:12;97012.00;;;16.90
68012;BMP180;54794;48.348;7.878;2023-10-19T10:40:20;97014.00;;;16.90
68012;BMP180;54794;48.348;7.878;2023-10-19T15:15:25;96720.00;;;17.60
68012;BMP180;54794;48.348;7.878;2023-10-19T16:13:16;96706.00;;;17.10
68012;BMP180;54794;48.348;7.878;2023-10-19T17:20:06;96690.00;;;16.90
68012;BMP180;54794;48.348;7.878;2023-10-19T17:22:49;96688.00;;;17.00
68012;BMP180;54794;48.348;7.878;2023-10-19T17:26:02;96684.00;;;17.00
68012;BMP180;54794;48.348;7.878;2023-10-19T17:40:41;96672.00;;;16.80
68012;BMP180;54794;48.348;7.878;2023-10-19T17:57:42;96648.00;;;16.70
